Oregon Highway — 3ENO7 — position and weather

sailwx.info

Track history (hours):
 
Tides and Currents Weather Stations Pressure Air Temp Water Temp Dewpoint Dewpoint Depression Visibility Wind Speed Wind Dir Waves Ship Positions

Oregon Highway

Last reported at 2018-Apr-14 12:08 UTC. Time now 2018-Apr-20 16:23 UTC.
Position N 34°41' E 140°06'.

Length 199 m; draft 9 m.

Type: Cargo ship. MMSI: 352929000.

Date/timePositionNaut miles runAvg speedWind from/ knotsBaromVisibWave heightAir tempDewpointWater temp
2018-Apr-14 12:08N 34°41' E 140°06'915.4
2018-Apr-14 11:34N 34°45' E 139°57'115.5
2018-Apr-14 11:31N 34°46' E 139°56'815.8
2018-Apr-14 11:00N 34°50' E 139°47'816.4
2018-Apr-14 10:30N 34°57' E 139°43'715.1
2018-Apr-14 10:00N 35°04' E 139°44'714.1
2018-Apr-14 09:30N 35°11' E 139°45'510.2
2018-Apr-14 09:00N 35°16' E 139°46'612.9
2018-Apr-14 08:30N 35°22' E 139°42'5 9.5
2018-Apr-14 08:00N 35°27' E 139°41'0 0.7
2018-Apr-14 07:28N 35°27' E 139°41'0 0.0
2018-Apr-14 06:58N 35°27' E 139°41'0 0.0
2018-Apr-14 06:28N 35°27' E 139°41'0 0.0
2018-Apr-14 05:58N 35°27' E 139°41'0 0.0
2018-Apr-14 05:28N 35°27' E 139°41'0 0.0
2018-Apr-14 04:58N 35°27' E 139°41'0 0.0
2018-Apr-14 04:28N 35°27' E 139°41'0 0.0
2018-Apr-14 03:58N 35°27' E 139°41'0 0.0
2018-Apr-14 03:28N 35°27' E 139°41'0 0.0
2018-Apr-14 02:58N 35°27' E 139°41'0 0.0
2018-Apr-14 02:28N 35°27' E 139°41'0 0.0
2018-Apr-14 01:58N 35°27' E 139°41'0 0.0
2018-Apr-14 01:28N 35°27' E 139°41'0 0.0
2018-Apr-14 00:58N 35°27' E 139°41'0 0.0
2018-Apr-14 00:28N 35°27' E 139°41'0 0.0
2018-Apr-13 23:58N 35°27' E 139°41'0 0.0
2018-Apr-13 23:28N 35°27' E 139°41'0 0.0
2018-Apr-13 22:58N 35°27' E 139°41'0 0.0
2018-Apr-13 22:28N 35°27' E 139°41'0 0.0
2018-Apr-13 22:00N 35°27' E 139°41'1 2.3
2018-Apr-13 21:30N 35°27' E 139°42'510.0
2018-Apr-13 21:00N 35°22' E 139°43'612.0
2018-Apr-13 20:30N 35°16' E 139°46'611.2
2018-Apr-13 20:00N 35°11' E 139°47'611.3
2018-Apr-13 19:30N 35°05' E 139°45'815.4
2018-Apr-13 19:00N 34°58' E 139°43'1414.4
2018-Apr-13 18:00N 34°45' E 139°51'814.4
2018-Apr-13 17:28N 34°37' E 139°51'716.1
2018-Apr-13 17:00N 34°36' E 139°42'815.7
2018-Apr-13 16:30N 34°35' E 139°32'815.5
2018-Apr-13 15:59N 34°34' E 139°22'714.3
2018-Apr-13 15:31N 34°34' E 139°14'916.4
2018-Apr-13 14:57N 34°28' E 139°06'715.3
2018-Apr-13 14:30N 34°24' E 138°59'816.3
2018-Apr-13 14:00N 34°24' E 138°49'816.0
2018-Apr-13 13:29N 34°23' E 138°39'1615.9
2018-Apr-13 12:29N 34°23' E 138°20'715.4
2018-Apr-13 12:00N 34°22' E 138°11'814.8
2018-Apr-13 11:29N 34°21' E 138°02'714.7
2018-Apr-13 11:00N 34°20' E 137°53'714.7
2018-Apr-13 10:30N 34°20' E 137°45'2015.1
2018-Apr-13 09:10N 34°20' E 137°20'2312.7
2018-Apr-13 07:19N 34°35' E 136°58'414.3
2018-Apr-13 07:00N 34°38' E 136°54'816.4
2018-Apr-13 06:30N 34°44' E 136°48'816.7
2018-Apr-13 06:00N 34°52' E 136°46'815.7
2018-Apr-13 05:30N 34°60' E 136°49'5 9.6
2018-Apr-13 05:00N 35°03' E 136°53'0 0.3
2018-Apr-13 04:28N 35°04' E 136°53'0 0.0
2018-Apr-13 03:58N 35°04' E 136°53'0 0.0
2018-Apr-13 03:28N 35°04' E 136°53'0 0.0
2018-Apr-13 02:58N 35°04' E 136°53'0 0.0
2018-Apr-13 02:28N 35°04' E 136°53'0 0.0
2018-Apr-13 01:58N 35°04' E 136°53'0 0.0
2018-Apr-13 01:28N 35°04' E 136°53'0 0.0
2018-Apr-13 00:58N 35°04' E 136°53'0 0.0
2018-Apr-13 00:28N 35°04' E 136°53'0 0.0
2018-Apr-12 23:58N 35°04' E 136°53'0 0.0
2018-Apr-12 23:28N 35°04' E 136°53'0 0.0
2018-Apr-12 22:58N 35°04' E 136°53'0 0.0
2018-Apr-12 22:28N 35°04' E 136°53'0 0.3
2018-Apr-12 22:00N 35°03' E 136°53'2 4.7
2018-Apr-12 21:31N 35°02' E 136°51'1 1.7
2018-Apr-12 20:59N 35°03' E 136°50'0 0.0
2018-Apr-12 20:29N 35°03' E 136°50'0 0.0
2018-Apr-12 19:59N 35°03' E 136°50'0 0.0
2018-Apr-12 19:29N 35°03' E 136°50'0 0.0
2018-Apr-12 18:59N 35°03' E 136°50'0 0.0
2018-Apr-12 18:29N 35°03' E 136°50'0 0.0
2018-Apr-12 17:59N 35°03' E 136°50'0 0.0
2018-Apr-12 17:29N 35°03' E 136°50'0 0.0
2018-Apr-12 16:59N 35°03' E 136°50'0 0.0
2018-Apr-12 16:29N 35°03' E 136°50'0 0.0
2018-Apr-12 15:59N 35°03' E 136°50'0 0.0
2018-Apr-12 15:29N 35°03' E 136°50'0 0.0
2018-Apr-12 14:59N 35°03' E 136°50'0 0.0
2018-Apr-12 14:29N 35°03' E 136°50'0 0.0
2018-Apr-12 13:59N 35°03' E 136°50'0 0.0
2018-Apr-12 13:29N 35°03' E 136°50'0 0.0
2018-Apr-12 12:59N 35°03' E 136°50'0 0.0
2018-Apr-12 12:29N 35°03' E 136°50'0 0.0
2018-Apr-12 11:59N 35°03' E 136°50'0 0.0
2018-Apr-12 11:29N 35°03' E 136°50'0 0.0
2018-Apr-12 10:59N 35°03' E 136°50'0 0.0
2018-Apr-12 10:29N 35°03' E 136°50'0 0.0
2018-Apr-12 09:59N 35°03' E 136°50'0 0.0
2018-Apr-12 09:29N 35°03' E 136°50'0 0.0
2018-Apr-12 08:59N 35°03' E 136°50'0 0.0
2018-Apr-12 08:29N 35°03' E 136°50'0 0.0
2018-Apr-12 07:59N 35°03' E 136°50'0 0.0
2018-Apr-12 07:29N 35°03' E 136°50'0 0.0
2018-Apr-12 06:59N 35°03' E 136°50'0 0.0
2018-Apr-12 06:29N 35°03' E 136°50'0 0.0
2018-Apr-12 05:59N 35°03' E 136°50'0 0.0
2018-Apr-12 05:29N 35°03' E 136°50'0 0.0
2018-Apr-12 04:59N 35°03' E 136°50'0 0.0
2018-Apr-12 04:29N 35°03' E 136°50'0 0.0
2018-Apr-12 03:59N 35°03' E 136°50'0 0.0
2018-Apr-12 03:29N 35°03' E 136°50'0 0.0
2018-Apr-12 02:59N 35°03' E 136°50'0 0.0
2018-Apr-12 02:29N 35°03' E 136°50'0 0.0
2018-Apr-12 01:59N 35°03' E 136°50'0 0.0
2018-Apr-12 01:29N 35°03' E 136°50'0 0.0
2018-Apr-12 00:59N 35°03' E 136°50'0 0.0
2018-Apr-12 00:29N 35°03' E 136°50'0 0.0
2018-Apr-11 23:59N 35°03' E 136°50'0 0.0
2018-Apr-11 23:29N 35°03' E 136°50'0 0.0
2018-Apr-11 22:59N 35°03' E 136°50'0 0.1
2018-Apr-11 22:30N 35°03' E 136°50'2 3.4
2018-Apr-11 22:00N 35°01' E 136°51'510.0
2018-Apr-11 21:30N 34°57' E 136°47'4 8.2
2018-Apr-11 21:00N 34°54' E 136°45'0 0.9
2018-Apr-11 20:29N 34°53' E 136°44'0 0.1
2018-Apr-11 19:59N 34°53' E 136°44'0 0.0
2018-Apr-11 19:29N 34°53' E 136°44'0 0.0
2018-Apr-11 18:59N 34°53' E 136°44'0 0.1
2018-Apr-11 18:29N 34°53' E 136°44'0 0.1
2018-Apr-11 17:59N 34°53' E 136°44'0 0.0
2018-Apr-11 17:29N 34°53' E 136°44'0 0.0
2018-Apr-11 16:59N 34°53' E 136°44'0 0.0
2018-Apr-11 16:29N 34°53' E 136°44'0 0.1
2018-Apr-11 15:53N 34°53' E 136°44'0 0.1
2018-Apr-11 15:29N 34°53' E 136°44'0 0.0
2018-Apr-11 14:59N 34°53' E 136°44'0 0.0
2018-Apr-11 14:29N 34°53' E 136°44'0 0.0
2018-Apr-11 13:59N 34°53' E 136°44'0 0.0
2018-Apr-11 13:29N 34°53' E 136°44'0 0.0
2018-Apr-11 12:59N 34°53' E 136°44'0 0.0
2018-Apr-11 12:29N 34°53' E 136°44'0 0.0
2018-Apr-11 11:59N 34°53' E 136°44'0 0.0
2018-Apr-11 11:29N 34°53' E 136°44'0 0.0
2018-Apr-11 10:59N 34°53' E 136°44'0 0.0
2018-Apr-11 10:29N 34°53' E 136°44'0 0.0
2018-Apr-11 09:59N 34°53' E 136°44'0 0.0
2018-Apr-11 09:29N 34°53' E 136°44'0 0.0
2018-Apr-11 08:59N 34°53' E 136°44'0 0.0
2018-Apr-11 08:29N 34°53' E 136°44'0 0.0
2018-Apr-11 07:59N 34°53' E 136°44'0 0.0
2018-Apr-11 07:29N 34°53' E 136°44'0 0.0
2018-Apr-11 06:59N 34°53' E 136°44'0 0.0
2018-Apr-11 06:29N 34°53' E 136°44'0 0.1
2018-Apr-11 05:59N 34°53' E 136°44'0 0.1
2018-Apr-11 05:17N 34°53' E 136°44'0 0.0
2018-Apr-11 04:59N 34°53' E 136°44'0 0.0
2018-Apr-11 04:29N 34°53' E 136°44'0 0.1
2018-Apr-11 03:59N 34°53' E 136°44'0 0.1
2018-Apr-11 03:29N 34°53' E 136°44'0 0.1
2018-Apr-11 02:59N 34°53' E 136°44'0 0.1
2018-Apr-11 02:29N 34°53' E 136°44'0 0.0
2018-Apr-11 01:59N 34°53' E 136°44'0 0.1
2018-Apr-11 01:29N 34°53' E 136°44'0 0.1
2018-Apr-11 00:59N 34°53' E 136°44'1 2.0
2018-Apr-11 00:30N 34°52' E 136°44'611.6
2018-Apr-11 00:01N 34°47' E 136°46'916.9
2018-Apr-10 23:30N 34°40' E 136°52'816.5
2018-Apr-10 23:00N 34°35' E 136°59'11312.7
2018-Apr-10 14:08N 33°10' E 135°28'616.2
2018-Apr-10 13:45N 33°09' E 135°21'516.0
2018-Apr-10 13:25N 33°07' E 135°15'614.5
2018-Apr-10 13:00N 33°04' E 135°09'815.7
2018-Apr-10 12:30N 32°56' E 135°10'95 5.6
2018-Apr-09 19:30N 32°34' E 133°20'8015.2
2018-Apr-09 14:14N 33°18' E 131°60'416.1
2018-Apr-09 14:00N 33°21' E 131°57'816.4
2018-Apr-09 13:30N 33°28' E 131°52'816.7
2018-Apr-09 13:00N 33°35' E 131°48'816.6
2018-Apr-09 12:30N 33°43' E 131°44'815.1
2018-Apr-09 12:00N 33°46' E 131°36'816.2
2018-Apr-09 11:30N 33°48' E 131°26'816.2
2018-Apr-09 11:00N 33°49' E 131°17'816.4
2018-Apr-09 10:30N 33°50' E 131°07'611.3
2018-Apr-09 10:01N 33°47' E 131°01'1 1.5
2018-Apr-09 09:28N 33°47' E 131°01'0 0.0
2018-Apr-09 08:58N 33°47' E 131°01'0 0.0
2018-Apr-09 08:28N 33°47' E 131°01'0 0.0
2018-Apr-09 07:58N 33°47' E 131°01'0 0.0
2018-Apr-09 07:28N 33°47' E 131°01'0 0.0
2018-Apr-09 06:58N 33°47' E 131°01'0 0.0
2018-Apr-09 06:25N 33°47' E 131°01'0 0.0
2018-Apr-09 05:58N 33°47' E 131°01'0 0.0
2018-Apr-09 05:28N 33°47' E 131°01'0 0.0
2018-Apr-09 04:58N 33°47' E 131°01'0 0.0
2018-Apr-09 04:28N 33°47' E 131°01'0 0.0
2018-Apr-09 03:58N 33°47' E 131°01'0 0.0
2018-Apr-09 03:28N 33°47' E 131°01'0 0.0
2018-Apr-09 02:58N 33°47' E 131°01'0 0.0
2018-Apr-09 02:28N 33°47' E 131°01'0 0.0
2018-Apr-09 01:58N 33°47' E 131°01'0 0.0
2018-Apr-09 01:28N 33°47' E 131°01'0 0.0
2018-Apr-09 00:58N 33°47' E 131°01'0 0.0
2018-Apr-09 00:28N 33°47' E 131°01'0 0.0
2018-Apr-08 23:58N 33°47' E 131°01'0 0.0
2018-Apr-08 23:28N 33°47' E 131°01'0 0.0
2018-Apr-08 22:58N 33°47' E 131°01'0 0.0
2018-Apr-08 22:29N 33°47' E 131°01'1 1.4
2018-Apr-08 22:01N 33°47' E 131°01'4 7.4
2018-Apr-08 21:30N 33°49' E 131°05'4 7.5
2018-Apr-08 21:01N 33°51' E 131°09'2 3.3
2018-Apr-08 20:30N 33°51' E 131°11'612.3
2018-Apr-08 20:01N 33°51' E 131°18'815.7
2018-Apr-08 19:30N 33°49' E 131°27'816.0
2018-Apr-08 19:00N 33°48' E 131°37'815.9
2018-Apr-08 18:31N 33°46' E 131°46'815.3
2018-Apr-08 18:01N 33°39' E 131°51'816.6
2018-Apr-08 17:30N 33°31' E 131°55'4 7.9
2018-Apr-08 17:00N 33°28' E 131°53'713.4
2018-Apr-08 16:31N 33°34' E 131°51'816.3
2018-Apr-08 16:00N 33°27' E 131°56'816.9
2018-Apr-08 15:30N 33°19' E 132°00'815.8
2018-Apr-08 15:00N 33°17' E 132°09'714.4
2018-Apr-08 14:30N 33°10' E 132°13'  
2018-Apr-05 12:13N 33°34' E 136°36'517.1
2018-Apr-05 11:56N 33°39' E 136°38'817.1
2018-Apr-05 11:27N 33°46' E 136°43'4815.3
2018-Apr-05 08:18N 34°32' E 137°01'5 9.5
2018-Apr-05 07:49N 34°36' E 136°58'511.5
2018-Apr-05 07:26N 34°39' E 137°01'716.1
2018-Apr-05 07:00N 34°42' E 137°09'713.4
2018-Apr-05 06:28N 34°44' E 137°17'1 2.3
2018-Apr-05 05:56N 34°44' E 137°19'0 0.0
2018-Apr-05 05:25N 34°44' E 137°19'0 0.0
2018-Apr-05 04:55N 34°44' E 137°19'0 0.0
2018-Apr-05 04:19N 34°44' E 137°19'0 0.0
2018-Apr-05 03:55N 34°44' E 137°19'0 0.0
2018-Apr-05 03:25N 34°44' E 137°19'0 0.0
2018-Apr-05 02:55N 34°44' E 137°19'0 0.0
2018-Apr-05 02:25N 34°44' E 137°19'0 0.0
2018-Apr-05 01:49N 34°44' E 137°19'0 0.0
2018-Apr-05 01:25N 34°44' E 137°19'0 0.0
2018-Apr-05 00:49N 34°44' E 137°19'0 0.0
2018-Apr-05 00:25N 34°44' E 137°19'0 0.0
2018-Apr-04 23:55N 34°44' E 137°19'0 0.0
2018-Apr-04 23:25N 34°44' E 137°19'0 0.0
2018-Apr-04 22:55N 34°44' E 137°19'0 0.0
2018-Apr-04 22:25N 34°44' E 137°19'0 0.0
2018-Apr-04 22:00N 34°44' E 137°19'2 3.9
2018-Apr-04 21:27N 34°44' E 137°16'3 6.5
2018-Apr-04 20:59N 34°44' E 137°12'0 0.4
2018-Apr-04 20:29N 34°44' E 137°12'0 0.1
2018-Apr-04 19:59N 34°44' E 137°12'0 0.0
2018-Apr-04 19:29N 34°44' E 137°12'0 0.1
2018-Apr-04 18:59N 34°44' E 137°12'0 0.0
2018-Apr-04 18:29N 34°44' E 137°12'0 0.0
2018-Apr-04 17:59N 34°44' E 137°12'0 0.0
2018-Apr-04 17:29N 34°44' E 137°12'0 0.1
2018-Apr-04 16:59N 34°44' E 137°12'0 0.1
2018-Apr-04 16:29N 34°44' E 137°12'0 0.1
2018-Apr-04 15:56N 34°44' E 137°12'0 0.1
2018-Apr-04 15:29N 34°44' E 137°12'0 0.1
2018-Apr-04 14:59N 34°44' E 137°12'0 0.0
2018-Apr-04 14:29N 34°44' E 137°12'0 0.0
2018-Apr-04 13:59N 34°44' E 137°12'0 0.1
2018-Apr-04 13:29N 34°44' E 137°12'0 0.1
2018-Apr-04 12:59N 34°44' E 137°12'0 0.2
2018-Apr-04 12:29N 34°44' E 137°12'  
Track history (hours):
 
Tides and Currents Weather Stations Pressure Air Temp Water Temp Dewpoint Dewpoint Depression Visibility Wind Speed Wind Dir Waves Ship Positions

Oregon Highway

Last reported at 2018-Apr-14 12:08 UTC. Time now 2018-Apr-20 16:23 UTC.
Position N 34°41' E 140°06'.

Length 199 m; draft 9 m.

Type: Cargo ship. MMSI: 352929000.

Date/timePositionNaut miles runAvg speedWind from/ knotsBaromVisibWave heightAir tempDewpointWater temp
2018-Apr-14 12:08N 34°41' E 140°06'915.4
2018-Apr-14 11:34N 34°45' E 139°57'115.5
2018-Apr-14 11:31N 34°46' E 139°56'815.8
2018-Apr-14 11:00N 34°50' E 139°47'816.4
2018-Apr-14 10:30N 34°57' E 139°43'715.1
2018-Apr-14 10:00N 35°04' E 139°44'714.1
2018-Apr-14 09:30N 35°11' E 139°45'510.2
2018-Apr-14 09:00N 35°16' E 139°46'612.9
2018-Apr-14 08:30N 35°22' E 139°42'5 9.5
2018-Apr-14 08:00N 35°27' E 139°41'0 0.7
2018-Apr-14 07:28N 35°27' E 139°41'0 0.0
2018-Apr-14 06:58N 35°27' E 139°41'0 0.0
2018-Apr-14 06:28N 35°27' E 139°41'0 0.0
2018-Apr-14 05:58N 35°27' E 139°41'0 0.0
2018-Apr-14 05:28N 35°27' E 139°41'0 0.0
2018-Apr-14 04:58N 35°27' E 139°41'0 0.0
2018-Apr-14 04:28N 35°27' E 139°41'0 0.0
2018-Apr-14 03:58N 35°27' E 139°41'0 0.0
2018-Apr-14 03:28N 35°27' E 139°41'0 0.0
2018-Apr-14 02:58N 35°27' E 139°41'0 0.0
2018-Apr-14 02:28N 35°27' E 139°41'0 0.0
2018-Apr-14 01:58N 35°27' E 139°41'0 0.0
2018-Apr-14 01:28N 35°27' E 139°41'0 0.0
2018-Apr-14 00:58N 35°27' E 139°41'0 0.0
2018-Apr-14 00:28N 35°27' E 139°41'0 0.0
2018-Apr-13 23:58N 35°27' E 139°41'0 0.0
2018-Apr-13 23:28N 35°27' E 139°41'0 0.0
2018-Apr-13 22:58N 35°27' E 139°41'0 0.0
2018-Apr-13 22:28N 35°27' E 139°41'0 0.0
2018-Apr-13 22:00N 35°27' E 139°41'1 2.3
2018-Apr-13 21:30N 35°27' E 139°42'510.0
2018-Apr-13 21:00N 35°22' E 139°43'612.0
2018-Apr-13 20:30N 35°16' E 139°46'611.2
2018-Apr-13 20:00N 35°11' E 139°47'611.3
2018-Apr-13 19:30N 35°05' E 139°45'815.4
2018-Apr-13 19:00N 34°58' E 139°43'1414.4
2018-Apr-13 18:00N 34°45' E 139°51'814.4
2018-Apr-13 17:28N 34°37' E 139°51'716.1
2018-Apr-13 17:00N 34°36' E 139°42'815.7
2018-Apr-13 16:30N 34°35' E 139°32'815.5
2018-Apr-13 15:59N 34°34' E 139°22'714.3
2018-Apr-13 15:31N 34°34' E 139°14'916.4
2018-Apr-13 14:57N 34°28' E 139°06'715.3
2018-Apr-13 14:30N 34°24' E 138°59'816.3
2018-Apr-13 14:00N 34°24' E 138°49'816.0
2018-Apr-13 13:29N 34°23' E 138°39'1615.9
2018-Apr-13 12:29N 34°23' E 138°20'715.4
2018-Apr-13 12:00N 34°22' E 138°11'814.8
2018-Apr-13 11:29N 34°21' E 138°02'714.7
2018-Apr-13 11:00N 34°20' E 137°53'714.7
2018-Apr-13 10:30N 34°20' E 137°45'2015.1
2018-Apr-13 09:10N 34°20' E 137°20'2312.7
2018-Apr-13 07:19N 34°35' E 136°58'414.3
2018-Apr-13 07:00N 34°38' E 136°54'816.4
2018-Apr-13 06:30N 34°44' E 136°48'816.7
2018-Apr-13 06:00N 34°52' E 136°46'815.7
2018-Apr-13 05:30N 34°60' E 136°49'5 9.6
2018-Apr-13 05:00N 35°03' E 136°53'0 0.3
2018-Apr-13 04:28N 35°04' E 136°53'0 0.0
2018-Apr-13 03:58N 35°04' E 136°53'0 0.0
2018-Apr-13 03:28N 35°04' E 136°53'0 0.0
2018-Apr-13 02:58N 35°04' E 136°53'0 0.0
2018-Apr-13 02:28N 35°04' E 136°53'0 0.0
2018-Apr-13 01:58N 35°04' E 136°53'0 0.0
2018-Apr-13 01:28N 35°04' E 136°53'0 0.0
2018-Apr-13 00:58N 35°04' E 136°53'0 0.0
2018-Apr-13 00:28N 35°04' E 136°53'0 0.0
2018-Apr-12 23:58N 35°04' E 136°53'0 0.0
2018-Apr-12 23:28N 35°04' E 136°53'0 0.0
2018-Apr-12 22:58N 35°04' E 136°53'0 0.0
2018-Apr-12 22:28N 35°04' E 136°53'0 0.3
2018-Apr-12 22:00N 35°03' E 136°53'2 4.7
2018-Apr-12 21:31N 35°02' E 136°51'1 1.7
2018-Apr-12 20:59N 35°03' E 136°50'0 0.0
2018-Apr-12 20:29N 35°03' E 136°50'0 0.0
2018-Apr-12 19:59N 35°03' E 136°50'0 0.0
2018-Apr-12 19:29N 35°03' E 136°50'0 0.0
2018-Apr-12 18:59N 35°03' E 136°50'0 0.0
2018-Apr-12 18:29N 35°03' E 136°50'0 0.0
2018-Apr-12 17:59N 35°03' E 136°50'0 0.0
2018-Apr-12 17:29N 35°03' E 136°50'0 0.0
2018-Apr-12 16:59N 35°03' E 136°50'0 0.0
2018-Apr-12 16:29N 35°03' E 136°50'0 0.0
2018-Apr-12 15:59N 35°03' E 136°50'0 0.0
2018-Apr-12 15:29N 35°03' E 136°50'0 0.0
2018-Apr-12 14:59N 35°03' E 136°50'0 0.0
2018-Apr-12 14:29N 35°03' E 136°50'0 0.0
2018-Apr-12 13:59N 35°03' E 136°50'0 0.0
2018-Apr-12 13:29N 35°03' E 136°50'0 0.0
2018-Apr-12 12:59N 35°03' E 136°50'0 0.0
2018-Apr-12 12:29N 35°03' E 136°50'0 0.0
2018-Apr-12 11:59N 35°03' E 136°50'0 0.0
2018-Apr-12 11:29N 35°03' E 136°50'0 0.0
2018-Apr-12 10:59N 35°03' E 136°50'0 0.0
2018-Apr-12 10:29N 35°03' E 136°50'0 0.0
2018-Apr-12 09:59N 35°03' E 136°50'0 0.0
2018-Apr-12 09:29N 35°03' E 136°50'0 0.0
2018-Apr-12 08:59N 35°03' E 136°50'0 0.0
2018-Apr-12 08:29N 35°03' E 136°50'0 0.0
2018-Apr-12 07:59N 35°03' E 136°50'0 0.0
2018-Apr-12 07:29N 35°03' E 136°50'0 0.0
2018-Apr-12 06:59N 35°03' E 136°50'0 0.0
2018-Apr-12 06:29N 35°03' E 136°50'0 0.0
2018-Apr-12 05:59N 35°03' E 136°50'0 0.0
2018-Apr-12 05:29N 35°03' E 136°50'0 0.0
2018-Apr-12 04:59N 35°03' E 136°50'0 0.0
2018-Apr-12 04:29N 35°03' E 136°50'0 0.0
2018-Apr-12 03:59N 35°03' E 136°50'0 0.0
2018-Apr-12 03:29N 35°03' E 136°50'0 0.0
2018-Apr-12 02:59N 35°03' E 136°50'0 0.0
2018-Apr-12 02:29N 35°03' E 136°50'0 0.0
2018-Apr-12 01:59N 35°03' E 136°50'0 0.0
2018-Apr-12 01:29N 35°03' E 136°50'0 0.0
2018-Apr-12 00:59N 35°03' E 136°50'0 0.0
2018-Apr-12 00:29N 35°03' E 136°50'0 0.0
2018-Apr-11 23:59N 35°03' E 136°50'0 0.0
2018-Apr-11 23:29N 35°03' E 136°50'0 0.0
2018-Apr-11 22:59N 35°03' E 136°50'0 0.1
2018-Apr-11 22:30N 35°03' E 136°50'2 3.4
2018-Apr-11 22:00N 35°01' E 136°51'510.0
2018-Apr-11 21:30N 34°57' E 136°47'4 8.2
2018-Apr-11 21:00N 34°54' E 136°45'0 0.9
2018-Apr-11 20:29N 34°53' E 136°44'0 0.1
2018-Apr-11 19:59N 34°53' E 136°44'0 0.0
2018-Apr-11 19:29N 34°53' E 136°44'0 0.0
2018-Apr-11 18:59N 34°53' E 136°44'0 0.1
2018-Apr-11 18:29N 34°53' E 136°44'0 0.1
2018-Apr-11 17:59N 34°53' E 136°44'0 0.0
2018-Apr-11 17:29N 34°53' E 136°44'0 0.0
2018-Apr-11 16:59N 34°53' E 136°44'0 0.0
2018-Apr-11 16:29N 34°53' E 136°44'0 0.1
2018-Apr-11 15:53N 34°53' E 136°44'0 0.1
2018-Apr-11 15:29N 34°53' E 136°44'0 0.0
2018-Apr-11 14:59N 34°53' E 136°44'0 0.0
2018-Apr-11 14:29N 34°53' E 136°44'0 0.0
2018-Apr-11 13:59N 34°53' E 136°44'0 0.0
2018-Apr-11 13:29N 34°53' E 136°44'0 0.0
2018-Apr-11 12:59N 34°53' E 136°44'0 0.0
2018-Apr-11 12:29N 34°53' E 136°44'0 0.0
2018-Apr-11 11:59N 34°53' E 136°44'0 0.0
2018-Apr-11 11:29N 34°53' E 136°44'0 0.0
2018-Apr-11 10:59N 34°53' E 136°44'0 0.0
2018-Apr-11 10:29N 34°53' E 136°44'0 0.0
2018-Apr-11 09:59N 34°53' E 136°44'0 0.0
2018-Apr-11 09:29N 34°53' E 136°44'0 0.0
2018-Apr-11 08:59N 34°53' E 136°44'0 0.0
2018-Apr-11 08:29N 34°53' E 136°44'0 0.0
2018-Apr-11 07:59N 34°53' E 136°44'0 0.0
2018-Apr-11 07:29N 34°53' E 136°44'0 0.0
2018-Apr-11 06:59N 34°53' E 136°44'0 0.0
2018-Apr-11 06:29N 34°53' E 136°44'0 0.1
2018-Apr-11 05:59N 34°53' E 136°44'0 0.1
2018-Apr-11 05:17N 34°53' E 136°44'0 0.0
2018-Apr-11 04:59N 34°53' E 136°44'0 0.0
2018-Apr-11 04:29N 34°53' E 136°44'0 0.1
2018-Apr-11 03:59N 34°53' E 136°44'0 0.1
2018-Apr-11 03:29N 34°53' E 136°44'0 0.1
2018-Apr-11 02:59N 34°53' E 136°44'0 0.1
2018-Apr-11 02:29N 34°53' E 136°44'0 0.0
2018-Apr-11 01:59N 34°53' E 136°44'0 0.1
2018-Apr-11 01:29N 34°53' E 136°44'0 0.1
2018-Apr-11 00:59N 34°53' E 136°44'1 2.0
2018-Apr-11 00:30N 34°52' E 136°44'611.6
2018-Apr-11 00:01N 34°47' E 136°46'916.9
2018-Apr-10 23:30N 34°40' E 136°52'816.5
2018-Apr-10 23:00N 34°35' E 136°59'11312.7
2018-Apr-10 14:08N 33°10' E 135°28'616.2
2018-Apr-10 13:45N 33°09' E 135°21'516.0
2018-Apr-10 13:25N 33°07' E 135°15'614.5
2018-Apr-10 13:00N 33°04' E 135°09'815.7
2018-Apr-10 12:30N 32°56' E 135°10'95 5.6
2018-Apr-09 19:30N 32°34' E 133°20'8015.2
2018-Apr-09 14:14N 33°18' E 131°60'416.1
2018-Apr-09 14:00N 33°21' E 131°57'816.4
2018-Apr-09 13:30N 33°28' E 131°52'816.7
2018-Apr-09 13:00N 33°35' E 131°48'816.6
2018-Apr-09 12:30N 33°43' E 131°44'815.1
2018-Apr-09 12:00N 33°46' E 131°36'816.2
2018-Apr-09 11:30N 33°48' E 131°26'816.2
2018-Apr-09 11:00N 33°49' E 131°17'816.4
2018-Apr-09 10:30N 33°50' E 131°07'611.3
2018-Apr-09 10:01N 33°47' E 131°01'1 1.5
2018-Apr-09 09:28N 33°47' E 131°01'0 0.0
2018-Apr-09 08:58N 33°47' E 131°01'0 0.0
2018-Apr-09 08:28N 33°47' E 131°01'0 0.0
2018-Apr-09 07:58N 33°47' E 131°01'0 0.0
2018-Apr-09 07:28N 33°47' E 131°01'0 0.0
2018-Apr-09 06:58N 33°47' E 131°01'0 0.0
2018-Apr-09 06:25N 33°47' E 131°01'0 0.0
2018-Apr-09 05:58N 33°47' E 131°01'0 0.0
2018-Apr-09 05:28N 33°47' E 131°01'0 0.0
2018-Apr-09 04:58N 33°47' E 131°01'0 0.0
2018-Apr-09 04:28N 33°47' E 131°01'0 0.0
2018-Apr-09 03:58N 33°47' E 131°01'0 0.0
2018-Apr-09 03:28N 33°47' E 131°01'0 0.0
2018-Apr-09 02:58N 33°47' E 131°01'0 0.0
2018-Apr-09 02:28N 33°47' E 131°01'0 0.0
2018-Apr-09 01:58N 33°47' E 131°01'0 0.0
2018-Apr-09 01:28N 33°47' E 131°01'0 0.0
2018-Apr-09 00:58N 33°47' E 131°01'0 0.0
2018-Apr-09 00:28N 33°47' E 131°01'0 0.0
2018-Apr-08 23:58N 33°47' E 131°01'0 0.0
2018-Apr-08 23:28N 33°47' E 131°01'0 0.0
2018-Apr-08 22:58N 33°47' E 131°01'0 0.0
2018-Apr-08 22:29N 33°47' E 131°01'1 1.4
2018-Apr-08 22:01N 33°47' E 131°01'4 7.4
2018-Apr-08 21:30N 33°49' E 131°05'4 7.5
2018-Apr-08 21:01N 33°51' E 131°09'2 3.3
2018-Apr-08 20:30N 33°51' E 131°11'612.3
2018-Apr-08 20:01N 33°51' E 131°18'815.7
2018-Apr-08 19:30N 33°49' E 131°27'816.0
2018-Apr-08 19:00N 33°48' E 131°37'815.9
2018-Apr-08 18:31N 33°46' E 131°46'815.3
2018-Apr-08 18:01N 33°39' E 131°51'816.6
2018-Apr-08 17:30N 33°31' E 131°55'4 7.9
2018-Apr-08 17:00N 33°28' E 131°53'713.4
2018-Apr-08 16:31N 33°34' E 131°51'816.3
2018-Apr-08 16:00N 33°27' E 131°56'816.9
2018-Apr-08 15:30N 33°19' E 132°00'815.8
2018-Apr-08 15:00N 33°17' E 132°09'714.4
2018-Apr-08 14:30N 33°10' E 132°13'  
2018-Apr-05 12:13N 33°34' E 136°36'517.1
2018-Apr-05 11:56N 33°39' E 136°38'817.1
2018-Apr-05 11:27N 33°46' E 136°43'4815.3
2018-Apr-05 08:18N 34°32' E 137°01'5 9.5
2018-Apr-05 07:49N 34°36' E 136°58'511.5
2018-Apr-05 07:26N 34°39' E 137°01'716.1
2018-Apr-05 07:00N 34°42' E 137°09'713.4
2018-Apr-05 06:28N 34°44' E 137°17'1 2.3
2018-Apr-05 05:56N 34°44' E 137°19'0 0.0
2018-Apr-05 05:25N 34°44' E 137°19'0 0.0
2018-Apr-05 04:55N 34°44' E 137°19'0 0.0
2018-Apr-05 04:19N 34°44' E 137°19'0 0.0
2018-Apr-05 03:55N 34°44' E 137°19'0 0.0
2018-Apr-05 03:25N 34°44' E 137°19'0 0.0
2018-Apr-05 02:55N 34°44' E 137°19'0 0.0
2018-Apr-05 02:25N 34°44' E 137°19'0 0.0
2018-Apr-05 01:49N 34°44' E 137°19'0 0.0
2018-Apr-05 01:25N 34°44' E 137°19'0 0.0
2018-Apr-05 00:49N 34°44' E 137°19'0 0.0
2018-Apr-05 00:25N 34°44' E 137°19'0 0.0
2018-Apr-04 23:55N 34°44' E 137°19'0 0.0
2018-Apr-04 23:25N 34°44' E 137°19'0 0.0
2018-Apr-04 22:55N 34°44' E 137°19'0 0.0
2018-Apr-04 22:25N 34°44' E 137°19'0 0.0
2018-Apr-04 22:00N 34°44' E 137°19'2 3.9
2018-Apr-04 21:27N 34°44' E 137°16'3 6.5
2018-Apr-04 20:59N 34°44' E 137°12'0 0.4
2018-Apr-04 20:29N 34°44' E 137°12'0 0.1
2018-Apr-04 19:59N 34°44' E 137°12'0 0.0
2018-Apr-04 19:29N 34°44' E 137°12'0 0.1
2018-Apr-04 18:59N 34°44' E 137°12'0 0.0
2018-Apr-04 18:29N 34°44' E 137°12'0 0.0
2018-Apr-04 17:59N 34°44' E 137°12'0 0.0
2018-Apr-04 17:29N 34°44' E 137°12'0 0.1
2018-Apr-04 16:59N 34°44' E 137°12'0 0.1
2018-Apr-04 16:29N 34°44' E 137°12'0 0.1
2018-Apr-04 15:56N 34°44' E 137°12'0 0.1
2018-Apr-04 15:29N 34°44' E 137°12'0 0.1
2018-Apr-04 14:59N 34°44' E 137°12'0 0.0
2018-Apr-04 14:29N 34°44' E 137°12'0 0.0
2018-Apr-04 13:59N 34°44' E 137°12'0 0.1
2018-Apr-04 13:29N 34°44' E 137°12'0 0.1
2018-Apr-04 12:59N 34°44' E 137°12'0 0.2
2018-Apr-04 12:29N 34°44' E 137°12'  

Dump ship's entire track history